createdAt,value
2023-04-19T00:00:58.559Z,10.75
2023-04-19T00:01:58.556Z,10.75
2023-04-19T00:02:58.844Z,10.76
2023-04-19T00:03:58.663Z,10.81
2023-04-19T00:04:58.611Z,10.78
2023-04-19T00:05:58.667Z,10.86
2023-04-19T00:06:58.625Z,10.79
2023-04-19T00:07:58.448Z,10.74
2023-04-19T00:08:58.504Z,10.75
2023-04-19T00:09:58.665Z,10.81
2023-04-19T00:10:58.457Z,10.74
2023-04-19T00:11:58.425Z,10.86
2023-04-19T00:12:58.412Z,10.82
2023-04-19T00:13:58.359Z,10.75
2023-04-19T00:14:58.386Z,10.75
2023-04-19T00:15:58.376Z,10.79
2023-04-19T00:16:58.512Z,10.74
2023-04-19T00:17:58.446Z,10.75
2023-04-19T00:18:58.362Z,10.79
2023-04-19T00:19:58.334Z,10.74
2023-04-19T00:20:58.331Z,10.69
2023-04-19T00:21:58.372Z,10.84
2023-04-19T00:22:58.360Z,10.87
2023-04-19T00:23:58.307Z,10.90
2023-04-19T00:24:58.265Z,10.75
2023-04-19T00:25:58.314Z,10.90
2023-04-19T00:26:58.266Z,10.92
2023-04-19T00:27:58.280Z,10.86
2023-04-19T00:28:58.259Z,10.87
2023-04-19T00:29:58.270Z,10.76
2023-04-19T00:30:58.357Z,10.76
2023-04-19T00:31:58.270Z,10.75
2023-04-19T00:32:58.316Z,10.75
2023-04-19T00:33:58.209Z,10.75
2023-04-19T00:34:58.178Z,10.79
2023-04-19T00:35:58.163Z,10.75
2023-04-19T00:36:58.180Z,10.69
2023-04-19T00:37:58.229Z,10.63
2023-04-19T00:38:58.220Z,10.63
2023-04-19T00:39:58.183Z,10.60
2023-04-19T00:40:58.224Z,10.71
2023-04-19T00:41:58.209Z,10.61
2023-04-19T00:42:58.211Z,10.61
2023-04-19T00:43:58.143Z,10.68
2023-04-19T00:44:58.862Z,10.61
2023-04-19T00:45:58.119Z,10.69
2023-04-19T00:46:58.155Z,10.63
2023-04-19T00:47:58.077Z,10.67
2023-04-19T00:48:58.061Z,10.53
2023-04-19T00:49:58.946Z,10.67
2023-04-19T00:50:58.053Z,10.60
2023-04-19T00:51:58.041Z,10.60
2023-04-19T00:52:58.006Z,10.59
2023-04-19T00:53:58.150Z,10.63
2023-04-19T00:54:57.992Z,10.68
2023-04-19T00:55:58.000Z,10.56
2023-04-19T00:56:57.987Z,10.68
2023-04-19T00:57:57.945Z,10.64
2023-04-19T00:58:58.011Z,10.68
2023-04-19T00:59:57.921Z,10.71
2023-04-19T01:00:58.843Z,10.61
2023-04-19T01:01:58.022Z,10.56
2023-04-19T01:02:57.989Z,10.60
2023-04-19T01:03:57.919Z,10.56
2023-04-19T01:04:57.898Z,10.54
2023-04-19T01:05:57.875Z,10.53
2023-04-19T01:06:57.886Z,10.54
2023-04-19T01:07:57.980Z,10.60
2023-04-19T01:08:57.849Z,10.54
2023-04-19T01:09:57.791Z,10.51
2023-04-19T01:10:57.899Z,10.53
2023-04-19T01:11:57.798Z,10.56
2023-04-19T01:12:57.958Z,10.46
2023-04-19T01:13:57.779Z,10.51
2023-04-19T01:14:57.787Z,10.34
2023-04-19T01:15:57.817Z,10.46
2023-04-19T01:16:57.776Z,10.40
2023-04-19T01:17:57.834Z,10.37
2023-04-19T01:18:57.876Z,10.38
2023-04-19T01:19:57.695Z,10.33
2023-04-19T01:20:57.758Z,10.33
2023-04-19T01:21:57.708Z,10.38
2023-04-19T01:22:57.913Z,10.38
2023-04-19T01:23:57.761Z,10.31
2023-04-19T01:24:57.688Z,10.31
2023-04-19T01:25:57.652Z,10.38
2023-04-19T01:26:57.768Z,10.35
2023-04-19T01:27:57.666Z,10.26
2023-04-19T01:28:57.676Z,10.33
2023-04-19T01:29:57.655Z,10.31
2023-04-19T01:30:57.693Z,10.28
2023-04-19T01:31:57.698Z,10.34
2023-04-19T01:32:57.680Z,10.38
2023-04-19T01:33:57.627Z,10.34
2023-04-19T01:34:57.654Z,10.28
2023-04-19T01:35:57.667Z,10.34
2023-04-19T01:36:57.554Z,10.35
2023-04-19T01:37:58.358Z,10.30
2023-04-19T01:38:57.571Z,10.34
2023-04-19T01:39:57.605Z,10.34
2023-04-19T01:40:57.519Z,10.38
2023-04-19T01:41:57.487Z,10.35
2023-04-19T01:42:57.661Z,10.35
2023-04-19T01:43:57.484Z,10.31
2023-04-19T01:44:57.520Z,10.37
2023-04-19T01:45:57.445Z,10.37
2023-04-19T01:46:57.541Z,10.31
2023-04-19T01:47:57.559Z,10.23
2023-04-19T01:48:57.487Z,10.30
2023-04-19T01:49:58.020Z,10.37
2023-04-19T01:50:57.455Z,10.28
2023-04-19T01:51:57.451Z,10.33
2023-04-19T01:52:57.475Z,10.31
2023-04-19T01:53:57.397Z,10.31
2023-04-19T01:54:57.409Z,10.33
2023-04-19T01:55:57.376Z,10.35
2023-04-19T01:56:57.350Z,10.25
2023-04-19T01:57:57.440Z,10.38
2023-04-19T01:58:58.348Z,10.37
2023-04-19T01:59:57.419Z,10.35
2023-04-19T02:00:57.388Z,10.31
2023-04-19T02:01:57.425Z,10.34
2023-04-19T02:02:57.443Z,10.31
2023-04-19T02:03:57.358Z,10.37
2023-04-19T02:04:57.307Z,10.25
2023-04-19T02:05:57.307Z,10.35
2023-04-19T02:06:57.255Z,10.31
2023-04-19T02:07:57.380Z,10.28
2023-04-19T02:08:57.283Z,10.31
2023-04-19T02:09:57.302Z,10.30
2023-04-19T02:10:58.015Z,10.28
2023-04-19T02:11:57.187Z,10.30
2023-04-19T02:12:57.268Z,10.28
2023-04-19T02:13:57.170Z,10.30
2023-04-19T02:15:11.350Z,10.26
2023-04-19T02:15:57.208Z,10.33
2023-04-19T02:16:57.262Z,10.37
2023-04-19T02:17:57.237Z,10.20
2023-04-19T02:18:57.138Z,10.25
2023-04-19T02:19:57.203Z,10.20
2023-04-19T02:20:57.176Z,10.19
2023-04-19T02:21:57.129Z,10.17
2023-04-19T02:22:57.120Z,10.17
2023-04-19T02:23:57.130Z,10.20
2023-04-19T02:24:57.079Z,10.26
2023-04-19T02:25:57.081Z,10.25
2023-04-19T02:26:57.113Z,10.12
2023-04-19T02:27:57.045Z,10.30
2023-04-19T02:28:57.026Z,10.10
2023-04-19T02:29:57.111Z,10.13
2023-04-19T02:30:57.042Z,10.04
2023-04-19T02:31:57.120Z,10.17
2023-04-19T02:32:57.049Z,10.07
2023-04-19T02:33:57.105Z,10.01
2023-04-19T02:34:57.021Z,10.01
2023-04-19T02:35:57.043Z,10.02
2023-04-19T02:36:57.049Z,10.04
2023-04-19T02:37:57.000Z,10.07
2023-04-19T02:38:56.925Z,10.15
2023-04-19T02:39:56.898Z,10.04
2023-04-19T02:40:57.018Z,10.01
2023-04-19T02:41:56.916Z,9.99
2023-04-19T02:42:56.956Z,9.99
2023-04-19T02:43:56.885Z,10.05
2023-04-19T02:44:56.831Z,9.98
2023-04-19T02:45:57.002Z,9.94
2023-04-19T02:46:56.903Z,9.92
2023-04-19T02:47:57.793Z,9.83
2023-04-19T02:48:56.894Z,9.95
2023-04-19T02:49:56.935Z,9.92
2023-04-19T02:50:56.875Z,9.89
2023-04-19T02:51:57.037Z,9.86
2023-04-19T02:52:56.829Z,9.87
2023-04-19T02:53:56.796Z,9.87
2023-04-19T02:54:57.448Z,9.95
2023-04-19T02:55:56.770Z,9.87
2023-04-19T02:57:07.010Z,9.87
2023-04-19T02:57:56.755Z,9.91
2023-04-19T02:58:56.849Z,9.94
2023-04-19T02:59:57.711Z,9.94
2023-04-19T03:00:56.775Z,9.95
2023-04-19T03:01:56.806Z,10.01
2023-04-19T03:02:56.945Z,10.01
2023-04-19T03:03:56.856Z,9.89
2023-04-19T03:04:56.699Z,9.98
2023-04-19T03:05:56.732Z,9.98
2023-04-19T03:06:56.725Z,9.91
2023-04-19T03:07:56.775Z,9.87
2023-04-19T03:08:56.646Z,9.84
2023-04-19T03:09:56.626Z,9.97
2023-04-19T03:10:57.507Z,9.86
2023-04-19T03:11:56.631Z,9.82
2023-04-19T03:12:56.785Z,9.84
2023-04-19T03:13:56.570Z,9.74
2023-04-19T03:14:56.608Z,9.76
2023-04-19T03:15:56.604Z,9.87
2023-04-19T03:16:56.724Z,9.82
2023-04-19T03:17:57.253Z,9.79
2023-04-19T03:18:56.603Z,9.79
2023-04-19T03:19:56.593Z,9.82
2023-04-19T03:20:56.595Z,9.83
2023-04-19T03:21:56.773Z,9.84
2023-04-19T03:22:56.514Z,9.73
2023-04-19T03:23:56.554Z,9.77
2023-04-19T03:24:56.560Z,9.72
2023-04-19T03:25:56.482Z,9.82
2023-04-19T03:26:56.510Z,9.74
2023-04-19T03:27:56.563Z,9.83
2023-04-19T03:28:56.686Z,9.68
2023-04-19T03:29:56.478Z,9.77
2023-04-19T03:30:56.489Z,9.68
2023-04-19T03:31:57.361Z,9.79
2023-04-19T03:32:56.502Z,9.73
2023-04-19T03:33:56.428Z,9.68
2023-04-19T03:34:56.369Z,9.69
2023-04-19T03:35:56.458Z,9.66
2023-04-19T03:36:56.503Z,9.65
2023-04-19T03:37:56.393Z,9.64
2023-04-19T03:38:57.312Z,9.54
2023-04-19T03:39:56.332Z,9.51
2023-04-19T03:40:57.692Z,9.48
2023-04-19T03:41:56.378Z,9.47
2023-04-19T03:42:58.825Z,9.54
2023-04-19T03:43:56.268Z,9.48
2023-04-19T03:44:56.456Z,9.48
2023-04-19T03:45:56.289Z,9.55
2023-04-19T03:46:56.430Z,9.43
2023-04-19T03:47:57.038Z,9.54
2023-04-19T03:48:56.272Z,9.36
2023-04-19T03:49:56.252Z,9.48
2023-04-19T03:50:56.302Z,9.47
2023-04-19T03:51:56.259Z,9.31
2023-04-19T03:52:56.994Z,9.31
2023-04-19T03:53:56.194Z,9.34
2023-04-19T03:54:56.194Z,9.34
2023-04-19T03:55:56.213Z,9.32
2023-04-19T03:56:56.466Z,9.29
2023-04-19T03:57:56.415Z,9.29
2023-04-19T03:58:56.128Z,9.25
2023-04-19T03:59:56.144Z,9.32
2023-04-19T04:00:56.116Z,9.26
2023-04-19T04:01:56.173Z,9.19
2023-04-19T04:02:56.377Z,9.22
2023-04-19T04:03:56.324Z,9.14
2023-04-19T04:04:56.168Z,9.28
2023-04-19T04:05:56.147Z,9.23
2023-04-19T04:07:39.368Z,9.18
2023-04-19T04:07:56.070Z,9.22
2023-04-19T04:08:56.153Z,9.21
2023-04-19T04:09:56.110Z,9.21
2023-04-19T04:10:56.051Z,9.23
2023-04-19T04:11:56.025Z,9.18
2023-04-19T04:12:56.326Z,9.18
2023-04-19T04:13:56.036Z,9.13
2023-04-19T04:14:55.998Z,9.14
2023-04-19T04:15:56.543Z,9.13
2023-04-19T04:16:56.039Z,9.14
2023-04-19T04:17:56.082Z,9.02
2023-04-19T04:18:56.014Z,9.19
2023-04-19T04:19:59.005Z,9.06
2023-04-19T04:20:55.997Z,9.19
2023-04-19T04:21:56.140Z,9.18
2023-04-19T04:22:56.112Z,9.14
2023-04-19T04:23:55.880Z,8.99
2023-04-19T04:24:56.448Z,9.08
2023-04-19T04:25:55.920Z,9.06
2023-04-19T04:26:55.916Z,8.94
2023-04-19T04:27:55.871Z,8.97
2023-04-19T04:28:55.888Z,9.08
2023-04-19T04:29:55.884Z,8.94
2023-04-19T04:30:55.965Z,8.94
2023-04-19T04:31:56.016Z,8.99
2023-04-19T04:32:59.148Z,9.04
2023-04-19T04:33:55.864Z,8.91
2023-04-19T04:34:55.796Z,8.99
2023-04-19T04:35:55.825Z,8.99
2023-04-19T04:36:55.838Z,8.95
2023-04-19T04:37:56.213Z,8.97
2023-04-19T04:38:55.845Z,8.91
2023-04-19T04:39:56.074Z,8.89
2023-04-19T04:40:57.069Z,8.78
2023-04-19T04:41:55.751Z,8.84
2023-04-19T04:42:55.783Z,8.82
2023-04-19T04:44:10.799Z,8.74
2023-04-19T04:44:57.741Z,8.69
2023-04-19T04:46:02.074Z,8.84
2023-04-19T04:46:55.735Z,8.71
2023-04-19T04:47:55.775Z,8.69
2023-04-19T04:53:59.457Z,8.51
2023-04-19T04:55:00.732Z,8.46
2023-04-19T04:56:00.628Z,8.51
2023-04-19T04:57:00.677Z,8.55
2023-04-19T04:58:00.912Z,8.46
2023-04-19T04:59:00.585Z,8.45
2023-04-19T05:00:00.703Z,8.45
2023-04-19T05:01:00.791Z,8.53
2023-04-19T05:02:00.676Z,8.56
2023-04-19T05:03:00.669Z,8.49
2023-04-19T05:04:00.663Z,8.45
2023-04-19T05:05:00.511Z,8.38
2023-04-19T05:06:02.514Z,8.30
2023-04-19T05:07:00.769Z,8.24
2023-04-19T05:08:00.512Z,8.16
2023-04-19T05:09:00.580Z,8.26
2023-04-19T05:10:04.086Z,8.10
2023-04-19T05:11:00.536Z,8.12
2023-04-19T05:12:01.422Z,8.05
2023-04-19T05:13:01.324Z,8.06
2023-04-19T05:14:01.452Z,8.15
2023-04-19T05:15:02.834Z,8.06
2023-04-19T05:16:01.060Z,8.05
2023-04-19T05:17:00.721Z,7.97
2023-04-19T05:18:01.153Z,8.01
2023-04-19T05:19:03.540Z,7.80
2023-04-19T05:20:00.367Z,7.90
2023-04-19T05:21:01.198Z,7.90
2023-04-19T05:22:00.485Z,7.79
2023-04-19T05:23:00.554Z,7.80
2023-04-19T05:24:00.328Z,7.85
2023-04-19T05:25:01.901Z,7.94
2023-04-19T05:26:00.348Z,7.87
2023-04-19T05:27:02.821Z,7.88
2023-04-19T05:28:01.585Z,7.91
2023-04-19T05:29:01.308Z,7.94
2023-04-19T05:30:00.428Z,7.98
2023-04-19T05:31:00.328Z,7.93
2023-04-19T05:32:06.161Z,7.94
2023-04-19T05:33:00.479Z,7.95
2023-04-19T05:34:00.235Z,8.00
2023-04-19T05:35:00.359Z,7.98
2023-04-19T05:36:00.243Z,7.97
2023-04-19T05:37:00.263Z,7.91
2023-04-19T05:38:00.404Z,7.97
2023-04-19T05:39:00.407Z,7.91
2023-04-19T05:40:00.477Z,7.91
2023-04-19T05:41:02.906Z,7.91
2023-04-19T05:42:04.663Z,7.85
2023-04-19T05:43:00.205Z,7.88
2023-04-19T05:44:00.220Z,7.88
2023-04-19T05:45:00.125Z,7.83
2023-04-19T05:46:21.334Z,7.80
2023-04-19T05:47:05.561Z,7.69
2023-04-19T05:48:00.246Z,7.82
2023-04-19T05:49:07.188Z,7.75
2023-04-19T05:50:00.168Z,7.69
2023-04-19T05:51:00.542Z,7.60
2023-04-19T05:52:01.744Z,7.67
2023-04-19T05:53:00.146Z,7.70
2023-04-19T05:54:00.223Z,7.67
2023-04-19T05:55:00.074Z,7.63
2023-04-19T05:56:02.307Z,7.61
2023-04-19T05:57:00.226Z,7.66
2023-04-19T05:58:00.313Z,7.75
2023-04-19T05:59:00.008Z,7.79
2023-04-19T06:01:00.155Z,7.76
2023-04-19T06:02:03.606Z,7.79
2023-04-19T06:03:01.413Z,7.75
2023-04-19T06:04:00.628Z,7.72
2023-04-19T06:05:07.955Z,7.69
2023-04-19T06:06:02.106Z,7.61
2023-04-19T06:07:02.070Z,7.60
2023-04-19T06:08:02.775Z,7.67
2023-04-19T06:09:02.078Z,7.60
2023-04-19T06:10:00.793Z,7.57
2023-04-19T06:11:05.131Z,7.61
2023-04-19T06:12:02.025Z,7.66
2023-04-19T06:13:00.512Z,7.56
2023-04-19T06:14:01.770Z,7.56
2023-04-19T06:14:59.909Z,7.57
2023-04-19T06:16:04.954Z,7.66
2023-04-19T06:16:59.926Z,7.72
2023-04-19T06:18:01.414Z,7.73
2023-04-19T06:32:39.255Z,7.83
2023-04-19T06:33:39.021Z,7.88
2023-04-19T06:34:39.113Z,7.88
2023-04-19T06:35:40.283Z,7.91
2023-04-19T06:36:40.105Z,7.98
2023-04-19T06:37:40.130Z,8.09
2023-04-19T06:38:40.520Z,8.03
2023-04-19T06:39:40.183Z,8.13
2023-04-19T06:40:40.078Z,8.27
2023-04-19T06:41:40.083Z,8.30
2023-04-19T06:42:40.085Z,8.34
2023-04-19T06:43:40.239Z,8.27
2023-04-19T06:44:40.061Z,8.42
2023-04-19T06:45:40.751Z,8.38
2023-04-19T06:46:40.034Z,8.49
2023-04-19T06:47:40.193Z,8.56
2023-04-19T06:48:40.811Z,8.48
2023-04-19T06:49:40.085Z,8.45
2023-04-19T06:50:40.003Z,8.49
2023-04-19T06:51:40.040Z,8.46
2023-04-19T06:52:40.261Z,8.60
2023-04-19T06:53:40.045Z,8.53
2023-04-19T06:54:40.115Z,8.55
2023-04-19T06:55:39.980Z,8.56
2023-04-19T06:56:42.086Z,8.55
2023-04-19T06:59:47.877Z,8.70
2023-04-19T07:00:48.335Z,8.60
2023-04-19T07:01:48.047Z,8.56
2023-04-19T07:02:48.010Z,8.63
2023-04-19T07:03:48.050Z,8.66
2023-04-19T07:04:49.588Z,8.64
2023-04-19T07:06:00.107Z,8.60
2023-04-19T07:06:54.657Z,8.58
2023-04-19T07:07:52.007Z,8.53
2023-04-19T07:08:50.493Z,8.53
2023-04-19T07:09:49.938Z,8.60
2023-04-19T07:10:48.981Z,8.60
2023-04-19T07:11:49.199Z,8.70
2023-04-19T07:12:48.985Z,8.76
2023-04-19T07:13:49.333Z,8.71
2023-04-19T07:14:51.464Z,8.81
2023-04-19T07:15:49.076Z,8.70
2023-04-19T07:16:50.195Z,8.84
2023-04-19T07:17:48.991Z,8.78
2023-04-19T07:18:49.187Z,8.71
2023-04-19T07:19:49.015Z,8.78
2023-04-19T07:20:49.029Z,8.79
2023-04-19T07:21:49.016Z,8.69
2023-04-19T07:22:48.972Z,8.73
2023-04-19T07:23:48.862Z,8.88
2023-04-19T07:24:49.020Z,8.82
2023-04-19T07:25:48.821Z,8.99
2023-04-19T07:26:49.348Z,8.99
2023-04-19T07:27:48.811Z,9.11
2023-04-19T07:28:48.932Z,9.18
2023-04-19T07:29:48.794Z,9.19
2023-04-19T07:30:48.884Z,9.16
2023-04-19T07:31:48.889Z,9.08
2023-04-19T07:32:49.219Z,9.19
2023-04-19T07:33:48.899Z,9.28
2023-04-19T07:34:48.886Z,9.22
2023-04-19T07:35:48.987Z,9.31
2023-04-19T07:36:49.617Z,9.37
2023-04-19T07:37:48.683Z,9.29
2023-04-19T07:38:48.732Z,9.40
2023-04-19T07:39:48.776Z,9.47
2023-04-19T07:40:49.151Z,9.47
2023-04-19T07:41:48.804Z,9.54
2023-04-19T07:42:48.722Z,9.54
2023-04-19T07:43:48.642Z,9.68
2023-04-19T07:44:48.636Z,9.59
2023-04-19T07:45:48.631Z,9.66
2023-04-19T07:46:48.680Z,9.56
2023-04-19T07:47:48.997Z,9.62
2023-04-19T07:48:48.586Z,9.62
2023-04-19T07:49:48.590Z,9.55
2023-04-19T07:50:48.578Z,9.56
2023-04-19T07:51:48.489Z,9.50
2023-04-19T07:52:48.748Z,9.43
2023-04-19T07:53:48.638Z,9.59
2023-04-19T07:54:48.520Z,9.68
2023-04-19T07:55:48.570Z,9.76
2023-04-19T07:56:48.743Z,9.72
2023-04-19T07:57:48.507Z,9.76
2023-04-19T07:58:56.497Z,9.69
2023-04-19T07:59:49.822Z,9.72
2023-04-19T08:00:48.665Z,9.69
2023-04-19T08:01:48.766Z,9.74
2023-04-19T08:02:51.100Z,9.83
2023-04-19T08:03:49.619Z,9.80
2023-04-19T08:04:48.948Z,9.77
2023-04-19T08:05:48.604Z,9.77
2023-04-19T08:06:48.531Z,9.83
2023-04-19T08:07:48.348Z,9.79
2023-04-19T08:08:49.775Z,9.73
2023-04-19T08:09:48.722Z,9.72
2023-04-19T08:10:48.670Z,9.65
2023-04-19T08:11:48.306Z,9.65
2023-04-19T08:13:03.545Z,9.76
2023-04-19T08:14:02.849Z,9.84
2023-04-19T08:14:59.942Z,9.76
2023-04-19T08:16:27.113Z,9.80
2023-04-19T08:17:14.453Z,9.58
2023-04-19T08:17:50.675Z,9.72
2023-04-19T08:18:48.461Z,9.72
2023-04-19T08:19:48.461Z,9.76
2023-04-19T08:20:48.318Z,9.82
2023-04-19T08:21:48.255Z,9.91
2023-04-19T08:22:48.325Z,10.02
2023-04-19T08:23:48.993Z,10.09
2023-04-19T08:24:49.280Z,10.04
2023-04-19T08:25:48.399Z,10.13
2023-04-19T08:26:48.937Z,10.19
2023-04-19T08:27:48.375Z,10.33
2023-04-19T08:28:48.202Z,10.40
2023-04-19T08:29:48.291Z,10.38
2023-04-19T08:30:48.476Z,10.34
2023-04-19T08:31:48.152Z,10.46
2023-04-19T08:32:48.136Z,10.42
2023-04-19T08:33:48.079Z,10.35
2023-04-19T08:34:48.112Z,10.34
2023-04-19T08:35:48.267Z,10.53
2023-04-19T08:36:55.947Z,10.49
2023-04-19T08:37:50.566Z,10.53
2023-04-19T08:38:54.973Z,10.53
2023-04-19T08:39:49.133Z,10.61
2023-04-19T08:40:48.093Z,10.53
2023-04-19T08:41:52.865Z,10.53
2023-04-19T08:42:50.090Z,10.64
2023-04-19T08:43:48.058Z,10.69
2023-04-19T08:45:06.359Z,10.75
2023-04-19T08:45:50.022Z,10.76
2023-04-19T08:46:48.035Z,10.57
2023-04-19T08:47:59.723Z,10.68
2023-04-19T08:48:50.958Z,10.68
2023-04-19T08:49:51.205Z,10.92
2023-04-19T08:51:01.235Z,10.94
2023-04-19T08:51:48.923Z,10.97
2023-04-19T08:52:55.899Z,10.87
2023-04-19T08:53:49.904Z,11.00
2023-04-19T08:54:47.897Z,10.97
2023-04-19T08:56:03.383Z,10.99
2023-04-19T08:56:49.945Z,10.97
2023-04-19T08:57:47.822Z,11.05
2023-04-19T08:59:48.822Z,11.02
2023-04-19T09:00:47.796Z,11.02
2023-04-19T09:01:47.975Z,10.96
2023-04-19T09:02:48.450Z,11.07
2023-04-19T09:04:02.623Z,10.92
2023-04-19T09:04:50.074Z,10.92
2023-04-19T09:05:48.899Z,10.72
2023-04-19T09:06:47.819Z,10.75
2023-04-19T09:07:47.774Z,10.81
2023-04-19T09:08:48.147Z,10.97
2023-04-19T09:10:02.105Z,11.10
2023-04-19T09:10:49.785Z,11.27
2023-04-19T09:11:47.832Z,11.37
2023-04-19T09:12:48.315Z,11.48
2023-04-19T09:13:47.801Z,11.50
2023-04-19T09:15:00.564Z,11.41
2023-04-19T09:15:49.745Z,11.30
2023-04-19T09:16:48.538Z,11.36
2023-04-19T09:17:48.028Z,11.25
2023-04-19T09:18:59.951Z,11.33
2023-04-19T09:19:50.262Z,11.51
2023-04-19T09:20:47.657Z,11.62
2023-04-19T09:21:47.675Z,11.35
2023-04-19T09:22:47.735Z,11.40
2023-04-19T09:23:47.639Z,11.41
2023-04-19T09:26:48.651Z,11.55
2023-04-19T09:27:47.610Z,11.77
2023-04-19T09:28:47.614Z,11.94
2023-04-19T09:29:47.580Z,11.94
2023-04-19T09:30:59.972Z,12.00
2023-04-19T09:31:51.873Z,11.80
2023-04-19T09:32:49.073Z,11.80
2023-04-19T09:33:47.609Z,11.69
2023-04-19T09:34:47.660Z,11.62
2023-04-19T09:35:48.302Z,11.73
2023-04-19T09:36:47.463Z,11.75
2023-04-19T09:38:48.501Z,11.66
2023-04-19T09:39:47.481Z,11.77
2023-04-19T09:40:47.688Z,11.94
2023-04-19T09:41:47.516Z,12.13
2023-04-19T09:43:00.722Z,12.04
2023-04-19T09:45:20.882Z,12.24
2023-04-19T09:45:49.485Z,12.32
2023-04-19T09:46:47.495Z,12.40
2023-04-19T09:47:47.506Z,12.40
2023-04-19T09:48:47.494Z,12.37
2023-04-19T09:49:49.444Z,12.37
2023-04-19T09:50:55.947Z,12.22
2023-04-19T09:51:49.350Z,12.35
2023-04-19T09:52:47.328Z,12.42
2023-04-19T09:53:47.322Z,12.45
2023-04-19T09:54:47.402Z,12.46
2023-04-19T09:55:59.647Z,12.53
2023-04-19T09:56:48.460Z,12.76
2023-04-19T09:57:47.277Z,12.75
2023-04-19T09:58:53.138Z,12.76
2023-04-19T09:59:49.420Z,12.79
2023-04-19T10:00:49.018Z,12.80
2023-04-19T10:01:48.367Z,12.67
2023-04-19T10:02:48.704Z,12.70
2023-04-19T10:03:47.680Z,12.58
2023-04-19T10:05:03.248Z,12.58
2023-04-19T10:05:49.370Z,12.54
2023-04-19T10:07:49.216Z,12.70
2023-04-19T10:08:47.246Z,12.86
2023-04-19T10:09:53.020Z,12.98
2023-04-19T10:10:49.166Z,13.03
2023-04-19T10:11:48.530Z,13.04
2023-04-19T10:13:11.060Z,13.11
2023-04-19T10:13:49.122Z,13.03
2023-04-19T10:14:47.144Z,13.18
2023-04-19T10:15:52.470Z,13.37
2023-04-19T10:16:49.140Z,13.12
2023-04-19T10:17:47.246Z,13.12
2023-04-19T10:18:47.163Z,13.15
2023-04-19T10:19:47.126Z,13.12
2023-04-19T10:20:47.144Z,13.09
2023-04-19T10:21:47.144Z,13.23
2023-04-19T10:22:46.992Z,13.37
2023-04-19T10:23:47.141Z,13.33
2023-04-19T10:24:48.297Z,13.22
2023-04-19T10:25:47.037Z,13.11
2023-04-19T10:26:47.851Z,13.12
2023-04-19T10:27:46.997Z,13.12
2023-04-19T10:28:46.987Z,12.94
2023-04-19T10:29:46.972Z,13.01
2023-04-19T10:30:46.972Z,12.97
2023-04-19T10:31:47.524Z,13.08
2023-04-19T10:32:47.041Z,13.12
2023-04-19T10:33:47.514Z,13.01
2023-04-19T10:34:46.947Z,13.01
2023-04-19T10:35:47.041Z,13.03
2023-04-19T10:36:46.923Z,13.11
2023-04-19T10:37:46.865Z,13.12
2023-04-19T10:38:47.049Z,13.42
2023-04-19T10:39:46.849Z,13.59
2023-04-19T10:40:46.891Z,13.63
2023-04-19T10:41:46.804Z,13.44
2023-04-19T10:42:46.973Z,13.37
2023-04-19T10:43:46.857Z,13.50
2023-04-19T10:44:46.814Z,13.68
2023-04-19T10:45:46.787Z,13.60
2023-04-19T10:46:46.848Z,13.60
2023-04-19T10:47:46.851Z,13.62
2023-04-19T10:48:46.805Z,13.62
2023-04-19T10:49:46.925Z,13.68
2023-04-19T10:50:46.778Z,13.68
2023-04-19T10:51:46.881Z,13.71
2023-04-19T10:52:46.737Z,13.79
2023-04-19T10:53:46.915Z,13.81
2023-04-19T10:54:46.996Z,14.05
2023-04-19T10:55:46.723Z,14.17
2023-04-19T10:56:46.828Z,14.18
2023-04-19T10:57:46.682Z,14.17
2023-04-19T10:58:48.478Z,14.08
2023-04-19T10:59:46.771Z,14.28
2023-04-19T11:00:46.633Z,14.20
2023-04-19T11:01:46.963Z,14.40
2023-04-19T11:02:46.845Z,14.33
2023-04-19T11:03:46.975Z,14.32
2023-04-19T11:04:46.658Z,14.12
2023-04-19T11:05:47.352Z,14.17
2023-04-19T11:06:46.635Z,14.23
2023-04-19T11:07:46.586Z,14.23
2023-04-19T11:08:46.637Z,14.15
2023-04-19T11:09:46.595Z,14.14
2023-04-19T11:10:46.679Z,14.05
2023-04-19T11:11:46.538Z,14.10
2023-04-19T11:12:46.565Z,14.12
2023-04-19T11:13:46.517Z,14.17
2023-04-19T11:14:46.588Z,14.43
2023-04-19T11:15:46.522Z,14.50
2023-04-19T11:16:46.672Z,14.60
2023-04-19T11:17:46.555Z,14.62
2023-04-19T11:18:46.552Z,14.73
2023-04-19T11:19:47.316Z,14.97
2023-04-19T11:20:46.463Z,15.14
2023-04-19T11:21:46.454Z,14.99
2023-04-19T11:22:46.507Z,14.91
2023-04-19T11:23:46.499Z,14.88
2023-04-19T11:24:47.383Z,14.92
2023-04-19T11:25:46.472Z,14.86
2023-04-19T11:26:46.439Z,14.85
2023-04-19T11:27:46.515Z,14.86
2023-04-19T11:28:46.346Z,15.10
2023-04-19T11:29:46.384Z,15.10
2023-04-19T11:30:46.448Z,15.03
2023-04-19T11:31:47.119Z,14.97
2023-04-19T11:32:46.321Z,15.03
2023-04-19T11:33:46.413Z,14.92
2023-04-19T11:34:46.374Z,14.96
2023-04-19T11:35:46.511Z,14.88
2023-04-19T11:36:46.267Z,14.82
2023-04-19T11:37:46.259Z,14.84
2023-04-19T11:38:46.270Z,14.85
2023-04-19T11:39:46.301Z,15.04
2023-04-19T11:40:46.237Z,14.81
2023-04-19T11:41:46.306Z,14.66
2023-04-19T11:46:29.059Z,14.81
2023-04-19T11:47:24.973Z,15.00
2023-04-19T11:48:24.940Z,15.02
2023-04-19T11:49:24.996Z,15.09
2023-04-19T11:50:24.936Z,15.14
2023-04-19T11:51:26.283Z,15.19
2023-04-19T11:52:26.184Z,15.25
2023-04-19T11:53:26.087Z,15.28
2023-04-19T11:54:26.060Z,15.27
2023-04-19T11:55:26.075Z,15.17
2023-04-19T11:56:26.028Z,15.28
2023-04-19T11:57:26.095Z,15.21
2023-04-19T11:58:26.122Z,15.07
2023-04-19T11:59:27.173Z,15.14
2023-04-19T12:00:26.040Z,15.29
2023-04-19T12:01:26.028Z,15.44
2023-04-19T12:02:26.183Z,15.57
2023-04-19T12:03:26.698Z,15.46
2023-04-19T12:04:27.155Z,15.51
2023-04-19T12:05:26.329Z,15.62
2023-04-19T12:06:26.017Z,15.59
2023-04-19T12:07:26.101Z,15.47
2023-04-19T12:08:26.130Z,15.46
2023-04-19T12:09:26.004Z,15.25
2023-04-19T12:10:26.052Z,14.99
2023-04-19T12:11:25.977Z,15.10
2023-04-19T12:12:25.918Z,15.28
2023-04-19T12:13:25.923Z,15.31
2023-04-19T12:14:25.914Z,15.43
2023-04-19T12:15:27.558Z,15.35
2023-04-19T12:16:26.881Z,15.44
2023-04-19T12:17:25.871Z,15.27
2023-04-19T12:18:25.929Z,15.27
2023-04-19T12:19:25.882Z,15.17
2023-04-19T12:20:25.867Z,15.14
2023-04-19T12:21:25.895Z,15.25
2023-04-19T12:22:25.894Z,15.28
2023-04-19T12:23:25.829Z,15.44
2023-04-19T12:24:26.014Z,15.33
2023-04-19T12:25:25.907Z,15.31
2023-04-19T12:26:25.775Z,15.21
2023-04-19T12:27:26.316Z,14.92
2023-04-19T12:28:25.764Z,14.81
2023-04-19T12:29:25.829Z,14.81
2023-04-19T12:30:25.724Z,14.79
2023-04-19T12:31:25.848Z,14.79
2023-04-19T12:32:25.736Z,14.69
2023-04-19T12:33:25.668Z,14.72
2023-04-19T12:34:25.737Z,14.92
2023-04-19T12:35:25.715Z,15.06
2023-04-19T12:36:25.812Z,15.27
2023-04-19T12:37:25.627Z,15.40
2023-04-19T12:38:25.692Z,15.37
2023-04-19T12:39:25.630Z,15.19
2023-04-19T12:40:25.645Z,15.09
2023-04-19T12:41:25.620Z,15.19
2023-04-19T12:42:25.635Z,15.31
2023-04-19T12:43:26.396Z,15.51
2023-04-19T12:44:25.617Z,15.68
2023-04-19T12:45:25.620Z,15.80
2023-04-19T12:46:25.611Z,15.73
2023-04-19T12:47:25.630Z,15.61
2023-04-19T12:48:25.582Z,15.43
2023-04-19T12:49:25.611Z,15.37
2023-04-19T12:50:25.543Z,15.39
2023-04-19T12:51:25.644Z,15.49
2023-04-19T12:52:25.623Z,15.44
2023-04-19T12:53:25.445Z,15.49
2023-04-19T12:54:25.639Z,15.61
2023-04-19T12:55:25.512Z,15.51
2023-04-19T12:56:25.410Z,15.65
2023-04-19T12:57:25.418Z,15.77
2023-04-19T12:58:25.442Z,15.67
2023-04-19T12:59:25.537Z,15.75
2023-04-19T13:00:25.448Z,15.72
2023-04-19T13:01:25.507Z,15.80
2023-04-19T13:02:25.566Z,15.92
2023-04-19T13:03:25.515Z,16.09
2023-04-19T13:04:25.698Z,15.98
2023-04-19T13:05:25.372Z,16.05
2023-04-19T13:06:25.355Z,15.95
2023-04-19T13:07:25.421Z,15.92
2023-04-19T13:08:37.431Z,16.12
2023-04-19T13:09:27.350Z,15.84
2023-04-19T13:10:25.347Z,15.91
2023-04-19T13:11:25.370Z,15.90
2023-04-19T13:12:25.333Z,15.88
2023-04-19T13:13:25.333Z,15.91
2023-04-19T13:14:25.385Z,15.88
2023-04-19T13:15:26.252Z,15.84
2023-04-19T13:16:25.455Z,16.02
2023-04-19T13:17:25.275Z,16.04
2023-04-19T13:18:25.320Z,16.17
2023-04-19T13:19:25.226Z,16.39
2023-04-19T13:20:26.087Z,16.31
2023-04-19T13:21:25.238Z,16.38
2023-04-19T13:22:25.232Z,16.35
2023-04-19T13:23:25.173Z,16.05
2023-04-19T13:24:25.438Z,16.04
2023-04-19T13:25:25.252Z,15.92
2023-04-19T13:26:25.159Z,15.83
2023-04-19T13:27:25.146Z,15.70
2023-04-19T13:28:25.124Z,15.86
2023-04-19T13:29:25.151Z,16.04
2023-04-19T13:30:25.149Z,16.04
2023-04-19T13:31:25.280Z,15.76
2023-04-19T13:32:25.099Z,15.58
2023-04-19T13:33:25.187Z,15.62
2023-04-19T13:34:25.072Z,15.65